Time;durP1;ratioP1;P1;durP2;ratioP2;P2;SDS_P1;SDS_P2;PMS_P1;PMS_P2;Temp;Humidity;BMP_temperature;BMP_pressure;BME280_temperature;BME280_humidity;BME280_pressure;Samples;Min_cycle;Max_cycle;Signal;HPM_P1;HPM_P2
2023/12/27 00:02:09;;;;;;;3.08;1.55;;;;;;;;;;6239570;23;20015;-79
2023/12/27 00:04:54;;;;;;;4.28;1.67;;;;;;;;;;6218586;23;20004;-82
2023/12/27 00:07:40;;;;;;;6.95;2.40;;;;;;;;;;6218238;23;20004;-82
2023/12/27 00:10:25;;;;;;;4.43;2.00;;;;;;;;;;6197897;23;20051;-80
2023/12/27 00:13:10;;;;;;;4.95;1.73;;;;;;;;;;6218158;23;20066;-82
2023/12/27 00:15:56;;;;;;;3.65;1.67;;;;;;;;;;6218324;23;20099;-81
2023/12/27 00:18:41;;;;;;;3.03;1.60;;;;;;;;;;6218596;23;20032;-82
2023/12/27 00:21:26;;;;;;;4.50;1.73;;;;;;;;;;6218011;23;20004;-81
2023/12/27 00:24:11;;;;;;;3.80;1.77;;;;;;;;;;6218840;23;20000;-80
2023/12/27 00:26:57;;;;;;;4.25;2.10;;;;;;;;;;6218125;23;20007;-80
2023/12/27 00:29:42;;;;;;;5.63;2.05;;;;;;;;;;6217911;23;20019;-81
2023/12/27 00:32:27;;;;;;;6.22;2.20;;;;;;;;;;6218154;23;20000;-80
2023/12/27 00:35:12;;;;;;;6.22;1.80;;;;;;;;;;6218182;23;20325;-80
2023/12/27 00:37:58;;;;;;;4.40;2.13;;;;;;;;;;6218092;23;19992;-80
2023/12/27 00:40:43;;;;;;;5.00;2.13;;;;;;;;;;6218142;23;20000;-80
2023/12/27 00:43:28;;;;;;;4.18;2.05;;;;;;;;;;6238917;23;20016;-81
2023/12/27 00:46:13;;;;;;;7.80;1.90;;;;;;;;;;6217931;23;20004;-81
2023/12/27 00:48:58;;;;;;;3.65;1.58;;;;;;;;;;6217981;23;20103;-81
2023/12/27 00:51:44;;;;;;;4.40;1.70;;;;;;;;;;6217803;23;19996;-80
2023/12/27 00:54:29;;;;;;;7.20;1.63;;;;;;;;;;6218891;23;20004;-80
2023/12/27 00:57:14;;;;;;;5.35;1.52;;;;;;;;;;6218063;23;20000;-80
2023/12/27 00:59:59;;;;;;;5.72;1.90;;;;;;;;;;6218310;23;20000;-79
2023/12/27 01:02:45;;;;;;;4.28;1.88;;;;;;;;;;6238700;23;20019;-81
2023/12/27 01:05:30;;;;;;;4.90;1.95;;;;;;;;;;6217987;23;20006;-82
2023/12/27 01:08:15;;;;;;;3.13;1.58;;;;;;;;;;6217742;23;20328;-80
2023/12/27 01:11:00;;;;;;;3.50;1.60;;;;;;;;;;6218135;23;20091;-81
2023/12/27 01:13:45;;;;;;;5.30;1.60;;;;;;;;;;6217460;23;20023;-82
2023/12/27 01:16:32;;;;;;;4.57;1.70;;;;;;;;;;6217959;23;20063;-81
2023/12/27 01:19:17;;;;;;;3.15;1.65;;;;;;;;;;6217509;23;20496;-83
2023/12/27 01:22:02;;;;;;;2.38;1.33;;;;;;;;;;6217308;23;20423;-81
2023/12/27 01:24:47;;;;;;;1.92;1.40;;;;;;;;;;6217980;23;20441;-81
2023/12/27 01:27:33;;;;;;;4.30;1.42;;;;;;;;;;6217297;23;20039;-82
2023/12/27 01:30:18;;;;;;;3.60;1.55;;;;;;;;;;6217881;23;20079;-82
2023/12/27 01:33:03;;;;;;;6.40;1.85;;;;;;;;;;6217485;23;20001;-81
2023/12/27 01:35:49;;;;;;;3.10;1.35;;;;;;;;;;6217958;23;20007;-81
2023/12/27 01:38:37;;;;;;;3.33;1.30;;;;;;;;;;6217997;23;20000;-81
2023/12/27 01:41:22;;;;;;;5.60;2.00;;;;;;;;;;6217994;23;20011;-81
2023/12/27 01:44:08;;;;;;;2.35;1.27;;;;;;;;;;6218391;23;20079;-81
2023/12/27 01:46:53;;;;;;;6.28;1.70;;;;;;;;;;6217586;23;20007;-81
2023/12/27 01:49:39;;;;;;;3.00;1.50;;;;;;;;;;6217793;23;20342;-80
2023/12/27 01:52:25;;;;;;;5.30;2.00;;;;;;;;;;6217386;23;19996;-80
2023/12/27 01:55:10;;;;;;;5.82;2.15;;;;;;;;;;6217885;23;20000;-80
2023/12/27 01:57:56;;;;;;;6.90;2.13;;;;;;;;;;6218101;23;19996;-80
2023/12/27 02:00:42;;;;;;;4.07;1.55;;;;;;;;;;6218369;23;20302;-79
2023/12/27 02:03:27;;;;;;;5.55;1.33;;;;;;;;;;6219125;23;19996;-81
2023/12/27 02:06:25;;;;;;;3.80;1.90;;;;;;;;;;6219948;23;20007;-82
2023/12/27 02:09:10;;;;;;;2.00;1.50;;;;;;;;;;6220063;23;20027;-80
2023/12/27 02:11:55;;;;;;;4.40;1.85;;;;;;;;;;6219949;23;20422;-80
2023/12/27 02:14:41;;;;;;;4.63;1.70;;;;;;;;;;6219134;23;20019;-79
2023/12/27 02:17:26;;;;;;;4.20;1.70;;;;;;;;;;6239984;23;20015;-82
2023/12/27 02:20:11;;;;;;;3.08;1.50;;;;;;;;;;6240550;23;20059;-81
2023/12/27 02:22:58;;;;;;;4.43;1.83;;;;;;;;;;6219372;23;20011;-81
2023/12/27 02:25:43;;;;;;;4.90;1.90;;;;;;;;;;6219388;23;20239;-82
2023/12/27 02:28:29;;;;;;;6.70;2.13;;;;;;;;;;6219927;23;20448;-82
2023/12/27 02:31:14;;;;;;;7.47;2.65;;;;;;;;;;6219331;23;20432;-78
2023/12/27 02:33:59;;;;;;;4.25;1.50;;;;;;;;;;6219344;23;20515;-81
2023/12/27 02:36:44;;;;;;;5.60;1.85;;;;;;;;;;6219384;23;20429;-80
2023/12/27 02:39:30;;;;;;;6.20;2.05;;;;;;;;;;6198413;23;20050;-82
2023/12/27 02:42:15;;;;;;;5.68;1.95;;;;;;;;;;6219116;23;20492;-81
2023/12/27 02:45:00;;;;;;;5.57;2.75;;;;;;;;;;6219192;23;20087;-82
2023/12/27 02:47:45;;;;;;;5.38;2.35;;;;;;;;;;6240161;23;19997;-82
2023/12/27 02:50:30;;;;;;;8.85;1.90;;;;;;;;;;6218880;23;20027;-82
2023/12/27 02:53:16;;;;;;;4.63;1.80;;;;;;;;;;6218898;23;20058;-82
2023/12/27 02:56:01;;;;;;;6.93;2.58;;;;;;;;;;6219162;23;20336;-81
2023/12/27 02:58:46;;;;;;;6.57;3.33;;;;;;;;;;6219182;23;20078;-81
2023/12/27 03:01:31;;;;;;;2.80;1.85;;;;;;;;;;6219481;23;20023;-80
2023/12/27 03:04:17;;;;;;;4.68;1.75;;;;;;;;;;6219312;23;20062;-80
2023/12/27 03:07:02;;;;;;;5.55;1.80;;;;;;;;;;6239150;23;20591;-81
2023/12/27 03:09:47;;;;;;;4.10;1.83;;;;;;;;;;6219124;22;20000;-81
2023/12/27 03:12:34;;;;;;;5.68;1.98;;;;;;;;;;6218805;23;19997;-81
2023/12/27 03:15:19;;;;;;;5.13;1.50;;;;;;;;;;6218733;23;20028;-81
2023/12/27 03:18:04;;;;;;;8.35;1.77;;;;;;;;;;6218526;23;19992;-80
2023/12/27 03:20:49;;;;;;;5.93;1.90;;;;;;;;;;6219059;23;20007;-80
2023/12/27 03:23:35;;;;;;;4.63;1.60;;;;;;;;;;6218863;23;19996;-80
2023/12/27 03:26:20;;;;;;;4.82;1.55;;;;;;;;;;6218621;23;20233;-80
2023/12/27 03:29:05;;;;;;;6.13;1.60;;;;;;;;;;6228752;23;20044;-78
2023/12/27 03:31:51;;;;;;;3.97;1.70;;;;;;;;;;6236804;23;20028;-80
2023/12/27 03:34:38;;;;;;;4.22;1.52;;;;;;;;;;6206364;23;19996;-78
2023/12/27 03:37:23;;;;;;;2.10;1.30;;;;;;;;;;6225925;23;20007;-78
2023/12/27 03:40:08;;;;;;;5.10;2.20;;;;;;;;;;6231161;23;20004;-82
2023/12/27 03:42:52;;;;;;;4.68;1.77;;;;;;;;;;6265504;22;20080;-82
2023/12/27 03:45:36;;;;;;;3.58;1.48;;;;;;;;;;6263062;23;20030;-82
2023/12/27 03:48:21;;;;;;;2.88;1.50;;;;;;;;;;6219992;23;20098;-83
2023/12/27 03:51:07;;;;;;;3.97;1.38;;;;;;;;;;6219142;23;20369;-83
2023/12/27 03:53:52;;;;;;;2.90;1.95;;;;;;;;;;6218921;23;20103;-81
2023/12/27 03:56:37;;;;;;;3.30;2.00;;;;;;;;;;6197931;23;20039;-82
2023/12/27 03:59:22;;;;;;;4.20;1.70;;;;;;;;;;6217945;23;20003;-81
2023/12/27 04:02:07;;;;;;;3.22;1.58;;;;;;;;;;6218605;23;20003;-82
2023/12/27 04:04:53;;;;;;;2.35;1.40;;;;;;;;;;6218385;23;20007;-81
2023/12/27 04:07:38;;;;;;;2.88;1.45;;;;;;;;;;6218215;23;20011;-81
2023/12/27 04:10:25;;;;;;;3.47;1.55;;;;;;;;;;6218521;23;20007;-81
2023/12/27 04:13:10;;;;;;;4.63;1.52;;;;;;;;;;6218503;23;19992;-81
2023/12/27 04:15:56;;;;;;;4.70;1.65;;;;;;;;;;6188629;23;20023;-80
2023/12/27 04:18:41;;;;;;;2.97;1.60;;;;;;;;;;6188523;23;20000;-80
2023/12/27 04:21:26;;;;;;;5.30;1.70;;;;;;;;;;6188289;23;20004;-80
2023/12/27 04:24:12;;;;;;;1.90;1.30;;;;;;;;;;6188003;23;20005;-80
2023/12/27 04:26:58;;;;;;;7.28;1.60;;;;;;;;;;6188713;23;20036;-80
2023/12/27 04:29:43;;;;;;;4.25;1.60;;;;;;;;;;6187937;23;20003;-80
2023/12/27 04:32:28;;;;;;;5.47;1.63;;;;;;;;;;6188188;23;20001;-81
2023/12/27 04:35:13;;;;;;;2.10;1.50;;;;;;;;;;6188370;23;20104;-80
2023/12/27 04:37:59;;;;;;;5.90;2.08;;;;;;;;;;6167293;23;20080;-80
2023/12/27 04:40:47;;;;;;;5.57;1.90;;;;;;;;;;6187954;23;19996;-81
2023/12/27 04:43:32;;;;;;;6.72;2.40;;;;;;;;;;6188044;23;19996;-81
2023/12/27 04:46:17;;;;;;;5.25;2.25;;;;;;;;;;6188021;23;20000;-84
2023/12/27 04:49:08;;;;;;;4.72;1.77;;;;;;;;;;6187758;23;20008;-84
2023/12/27 04:51:53;;;;;;;4.32;1.88;;;;;;;;;;6188133;23;20001;-81
2023/12/27 04:54:38;;;;;;;4.10;2.03;;;;;;;;;;6188402;23;20043;-83
2023/12/27 04:57:23;;;;;;;4.43;2.03;;;;;;;;;;6187732;23;20386;-82
2023/12/27 05:00:09;;;;;;;5.28;1.90;;;;;;;;;;6188207;23;20003;-82
2023/12/27 05:02:54;;;;;;;5.57;2.20;;;;;;;;;;6187927;23;20035;-82
2023/12/27 05:05:40;;;;;;;8.98;2.33;;;;;;;;;;6187983;23;20012;-82
2023/12/27 05:08:25;;;;;;;3.95;2.35;;;;;;;;;;6187276;23;20054;-82
2023/12/27 05:11:14;;;;;;;5.50;1.80;;;;;;;;;;6188150;23;19996;-81
2023/12/27 05:13:59;;;;;;;3.72;2.03;;;;;;;;;;6188060;23;20043;-83
2023/12/27 05:16:47;;;;;;;4.88;1.92;;;;;;;;;;6206107;23;20007;-83
2023/12/27 05:19:39;;;;;;;3.35;1.70;;;;;;;;;;6217788;23;20035;-82
2023/12/27 05:22:26;;;;;;;5.00;1.90;;;;;;;;;;6217482;23;20448;-81
2023/12/27 05:25:12;;;;;;;5.53;1.48;;;;;;;;;;6218070;23;20004;-81
2023/12/27 05:27:57;;;;;;;4.97;1.65;;;;;;;;;;6217921;23;20333;-81
2023/12/27 05:30:42;;;;;;;4.88;2.03;;;;;;;;;;6238615;23;20079;-82
2023/12/27 05:33:28;;;;;;;3.47;1.50;;;;;;;;;;6218279;23;20079;-81
2023/12/27 05:36:13;;;;;;;5.32;2.08;;;;;;;;;;6218865;23;20027;-82
2023/12/27 05:38:59;;;;;;;3.85;2.10;;;;;;;;;;6220422;23;20428;-81
2023/12/27 05:41:44;;;;;;;3.38;1.58;;;;;;;;;;6240524;23;20086;-81
2023/12/27 05:44:29;;;;;;;3.72;1.95;;;;;;;;;;6241138;23;20007;-82
2023/12/27 05:47:14;;;;;;;8.43;1.92;;;;;;;;;;6219819;23;20030;-81
2023/12/27 05:49:59;;;;;;;4.93;2.13;;;;;;;;;;6219922;23;20077;-81
2023/12/27 05:52:45;;;;;;;2.65;1.77;;;;;;;;;;6219295;23;20000;-81
2023/12/27 05:55:30;;;;;;;5.85;2.20;;;;;;;;;;6241075;23;19996;-81
2023/12/27 05:58:16;;;;;;;4.10;2.33;;;;;;;;;;6219866;23;20337;-81
2023/12/27 06:01:01;;;;;;;6.95;2.50;;;;;;;;;;6219296;23;20002;-82
2023/12/27 06:03:46;;;;;;;8.27;3.25;;;;;;;;;;6218728;23;20341;-81
2023/12/27 06:06:31;;;;;;;4.50;2.10;;;;;;;;;;6219308;23;19996;-80
2023/12/27 06:09:17;;;;;;;5.80;2.70;;;;;;;;;;6241005;23;20424;-83
2023/12/27 06:12:02;;;;;;;5.90;3.10;;;;;;;;;;6219150;23;19996;-78
2023/12/27 06:14:47;;;;;;;6.65;2.80;;;;;;;;;;6219013;23;20020;-82
2023/12/27 06:17:32;;;;;;;5.93;2.30;;;;;;;;;;6219331;23;20057;-81
2023/12/27 06:20:18;;;;;;;4.40;2.05;;;;;;;;;;6219242;23;20081;-82
2023/12/27 06:23:03;;;;;;;7.93;2.67;;;;;;;;;;6219021;23;19997;-81
2023/12/27 06:25:49;;;;;;;4.90;2.20;;;;;;;;;;6219794;23;20007;-81
2023/12/27 06:28:34;;;;;;;7.18;2.60;;;;;;;;;;6219780;23;20003;-80
2023/12/27 06:31:19;;;;;;;5.10;1.98;;;;;;;;;;6219233;23;20000;-82
2023/12/27 06:34:04;;;;;;;4.95;2.03;;;;;;;;;;6218777;23;19996;-81
2023/12/27 06:36:51;;;;;;;4.93;2.35;;;;;;;;;;6214338;23;20088;-81
2023/12/27 06:39:36;;;;;;;6.55;1.98;;;;;;;;;;6219730;23;20079;-82
2023/12/27 06:42:21;;;;;;;5.55;2.20;;;;;;;;;;6219095;23;20190;-81
2023/12/27 06:45:07;;;;;;;7.43;2.42;;;;;;;;;;6218831;23;20058;-80
2023/12/27 06:47:52;;;;;;;4.63;2.50;;;;;;;;;;6240069;23;20004;-81
2023/12/27 06:50:37;;;;;;;7.05;2.72;;;;;;;;;;6219699;23;20003;-80
2023/12/27 06:53:22;;;;;;;4.53;2.70;;;;;;;;;;6219599;23;20331;-80
2023/12/27 06:56:08;;;;;;;4.43;2.42;;;;;;;;;;6219854;23;20069;-80
2023/12/27 06:58:53;;;;;;;6.78;2.55;;;;;;;;;;6219250;23;20000;-80
2023/12/27 07:01:38;;;;;;;5.07;2.80;;;;;;;;;;6219657;23;20011;-80
2023/12/27 07:04:23;;;;;;;6.15;2.45;;;;;;;;;;6218819;23;20004;-80
2023/12/27 07:07:09;;;;;;;4.70;2.40;;;;;;;;;;6219205;23;20011;-80
2023/12/27 07:09:54;;;;;;;11.45;2.72;;;;;;;;;;6219504;22;20000;-81
2023/12/27 07:12:40;;;;;;;8.23;3.35;;;;;;;;;;6218943;23;20000;-81
2023/12/27 07:15:25;;;;;;;5.07;2.50;;;;;;;;;;6218303;23;20019;-80
2023/12/27 07:18:10;;;;;;;7.18;2.78;;;;;;;;;;6218787;23;20023;-81
2023/12/27 07:20:56;;;;;;;6.90;3.00;;;;;;;;;;6218533;23;20026;-82
2023/12/27 07:23:41;;;;;;;11.02;3.25;;;;;;;;;;6219190;23;20007;-82
2023/12/27 07:26:26;;;;;;;7.18;2.78;;;;;;;;;;6218582;23;20000;-81
2023/12/27 07:29:12;;;;;;;9.07;2.53;;;;;;;;;;6218779;23;19996;-80
2023/12/27 07:31:57;;;;;;;7.32;3.92;;;;;;;;;;6218799;23;19996;-81
2023/12/27 07:34:42;;;;;;;6.88;2.42;;;;;;;;;;6218223;23;20309;-82
2023/12/27 07:37:27;;;;;;;5.85;2.60;;;;;;;;;;6239808;23;20038;-81
2023/12/27 07:40:14;;;;;;;6.25;2.95;;;;;;;;;;6219177;23;20007;-82
2023/12/27 07:43:00;;;;;;;5.95;3.13;;;;;;;;;;6218854;23;20436;-81
2023/12/27 07:45:45;;;;;;;6.43;2.83;;;;;;;;;;6238683;23;20019;-81
2023/12/27 07:48:30;;;;;;;8.32;3.30;;;;;;;;;;6218865;23;20000;-81
2023/12/27 07:51:15;;;;;;;9.25;3.10;;;;;;;;;;6239688;23;20350;-81
2023/12/27 07:54:00;;;;;;;5.72;2.95;;;;;;;;;;6218710;23;20075;-81
2023/12/27 07:56:46;;;;;;;8.82;3.40;;;;;;;;;;6218370;23;20028;-80
2023/12/27 07:59:31;;;;;;;10.35;3.67;;;;;;;;;;6217848;23;20008;-81
2023/12/27 08:02:16;;;;;;;7.35;2.90;;;;;;;;;;6218590;23;20031;-81
2023/12/27 08:05:02;;;;;;;8.15;3.00;;;;;;;;;;6218660;23;20000;-80
2023/12/27 08:07:47;;;;;;;10.98;3.50;;;;;;;;;;6218404;23;20341;-80
2023/12/27 08:10:33;;;;;;;10.52;3.78;;;;;;;;;;6218668;23;20085;-81
2023/12/27 08:13:18;;;;;;;9.70;4.40;;;;;;;;;;6239775;23;20568;-81
2023/12/27 08:16:03;;;;;;;8.75;3.45;;;;;;;;;;6217851;23;20026;-81
2023/12/27 08:18:49;;;;;;;7.35;3.10;;;;;;;;;;6197270;23;20064;-80
2023/12/27 08:21:34;;;;;;;11.88;4.18;;;;;;;;;;6218037;23;20058;-79
2023/12/27 08:24:19;;;;;;;8.80;3.60;;;;;;;;;;6218732;23;20040;-81
2023/12/27 08:27:04;;;;;;;8.98;4.32;;;;;;;;;;6217863;23;20025;-81
2023/12/27 08:29:50;;;;;;;6.43;3.60;;;;;;;;;;6218352;23;20086;-83
2023/12/27 08:32:35;;;;;;;6.13;3.92;;;;;;;;;;6218221;23;20491;-83
2023/12/27 08:35:20;;;;;;;14.15;3.63;;;;;;;;;;6217970;23;20320;-84
2023/12/27 08:38:05;;;;;;;6.15;2.83;;;;;;;;;;6217891;23;20015;-84
2023/12/27 08:40:51;;;;;;;4.93;3.08;;;;;;;;;;6218839;23;20087;-83
2023/12/27 08:43:37;;;;;;;7.68;3.38;;;;;;;;;;6218297;23;20350;-81
2023/12/27 08:46:23;;;;;;;7.20;3.30;;;;;;;;;;6217603;23;20087;-81
2023/12/27 08:49:08;;;;;;;7.97;3.50;;;;;;;;;;6218378;23;20058;-82
2023/12/27 08:51:53;;;;;;;7.45;3.20;;;;;;;;;;6218237;23;19992;-81
2023/12/27 08:54:38;;;;;;;6.50;3.03;;;;;;;;;;6239868;23;19996;-82
2023/12/27 08:57:24;;;;;;;6.28;2.92;;;;;;;;;;6238771;23;20000;-83
2023/12/27 09:00:10;;;;;;;9.38;2.72;;;;;;;;;;6217799;23;20026;-82
2023/12/27 09:02:55;;;;;;;8.55;3.30;;;;;;;;;;6218137;23;20004;-81
2023/12/27 09:05:40;;;;;;;9.88;3.00;;;;;;;;;;6218068;23;20000;-80
2023/12/27 09:08:26;;;;;;;7.93;3.33;;;;;;;;;;6217793;23;20087;-80
2023/12/27 09:11:11;;;;;;;5.97;3.28;;;;;;;;;;6218002;23;20003;-81
2023/12/27 09:13:57;;;;;;;7.82;3.20;;;;;;;;;;6217605;23;20016;-80
2023/12/27 09:16:42;;;;;;;9.07;3.78;;;;;;;;;;6217405;23;20023;-80
2023/12/27 09:19:27;;;;;;;8.73;4.72;;;;;;;;;;6218176;23;20000;-80
2023/12/27 09:22:13;;;;;;;10.65;4.93;;;;;;;;;;6218144;23;19992;-81
2023/12/27 09:24:58;;;;;;;8.18;4.40;;;;;;;;;;6218327;23;19999;-80
2023/12/27 09:27:44;;;;;;;12.88;4.40;;;;;;;;;;6217344;23;20273;-80
2023/12/27 09:30:30;;;;;;;12.10;3.78;;;;;;;;;;6217519;23;20055;-81
2023/12/27 09:33:15;;;;;;;10.98;3.72;;;;;;;;;;6217579;23;20341;-80
2023/12/27 09:36:00;;;;;;;9.00;3.65;;;;;;;;;;6217737;23;19996;-80
2023/12/27 09:38:45;;;;;;;7.68;3.65;;;;;;;;;;6238470;23;19993;-80
2023/12/27 09:41:31;;;;;;;8.55;3.45;;;;;;;;;;6216874;23;19992;-82
2023/12/27 09:44:18;;;;;;;8.20;3.20;;;;;;;;;;6218173;23;20333;-82
2023/12/27 09:47:05;;;;;;;8.93;3.38;;;;;;;;;;6217146;23;20014;-81
2023/12/27 09:49:54;;;;;;;5.15;2.78;;;;;;;;;;6196911;23;20054;-82
2023/12/27 09:52:39;;;;;;;;;;;;;;;;;;6217919;23;20058;-80
2023/12/27 09:55:25;;;;;;;8.05;3.05;;;;;;;;;;6217859;23;19899;-82
2023/12/27 09:58:10;;;;;;;7.00;3.03;;;;;;;;;;6217800;23;19993;-83
2023/12/27 10:00:58;;;;;;;7.50;3.67;;;;;;;;;;6217833;23;20075;-82
2023/12/27 10:03:47;;;;;;;5.97;3.15;;;;;;;;;;6217378;23;20672;-82
2023/12/27 10:06:32;;;;;;;10.18;3.90;;;;;;;;;;6219369;23;20014;-82
2023/12/27 10:09:18;;;;;;;6.72;3.40;;;;;;;;;;6217962;23;20310;-83
2023/12/27 10:12:04;;;;;;;11.15;3.00;;;;;;;;;;6217434;23;20047;-82
2023/12/27 10:14:51;;;;;;;8.75;3.53;;;;;;;;;;6217293;23;20020;-82
2023/12/27 10:17:36;;;;;;;10.50;3.33;;;;;;;;;;6217378;23;20066;-82
2023/12/27 10:20:36;;;;;;;6.57;3.25;;;;;;;;;;6217567;23;20008;-82
2023/12/27 10:23:22;;;;;;;7.50;3.53;;;;;;;;;;6240384;23;20335;-81
2023/12/27 10:26:08;;;;;;;6.03;2.50;;;;;;;;;;6219274;23;19996;-80
2023/12/27 10:28:53;;;;;;;6.53;2.85;;;;;;;;;;6219576;23;20003;-80
2023/12/27 10:31:38;;;;;;;8.07;3.20;;;;;;;;;;6219042;23;20112;-80
2023/12/27 10:34:24;;;;;;;4.93;2.40;;;;;;;;;;6240054;23;20007;-80
2023/12/27 10:37:12;;;;;;;3.83;1.92;;;;;;;;;;6240430;23;20015;-80
2023/12/27 10:39:57;;;;;;;5.10;2.67;;;;;;;;;;6219422;23;20075;-80
2023/12/27 10:42:42;;;;;;;11.52;4.95;;;;;;;;;;6218594;23;20004;-80
2023/12/27 10:45:27;;;;;;;7.45;3.22;;;;;;;;;;6219350;23;20004;-81
2023/12/27 10:48:13;;;;;;;7.20;3.08;;;;;;;;;;6219353;23;20008;-80
2023/12/27 10:50:59;;;;;;;7.85;2.50;;;;;;;;;;6219496;23;19996;-81
2023/12/27 10:53:45;;;;;;;6.07;3.05;;;;;;;;;;6218780;23;20004;-81
2023/12/27 10:56:38;;;;;;;4.93;2.85;;;;;;;;;;6240763;23;20010;-81
2023/12/27 10:59:24;;;;;;;8.38;3.20;;;;;;;;;;6219250;23;19996;-79
2023/12/27 11:02:09;;;;;;;4.38;2.25;;;;;;;;;;6219210;23;20000;-83
2023/12/27 11:04:55;;;;;;;5.53;2.58;;;;;;;;;;6240150;23;20298;-82
2023/12/27 11:07:42;;;;;;;4.30;1.90;;;;;;;;;;6218512;23;20023;-81
2023/12/27 11:10:29;;;;;;;5.32;1.88;;;;;;;;;;6240438;22;20004;-84
2023/12/27 11:13:17;;;;;;;5.28;2.00;;;;;;;;;;6219319;23;20325;-83
2023/12/27 11:16:03;;;;;;;4.70;2.05;;;;;;;;;;6219000;23;20095;-82
2023/12/27 11:18:50;;;;;;;5.20;2.30;;;;;;;;;;6239945;23;19992;-81
2023/12/27 11:21:36;;;;;;;5.30;2.00;;;;;;;;;;6218617;23;20512;-81
2023/12/27 11:24:22;;;;;;;6.40;2.17;;;;;;;;;;6240048;23;19996;-81
2023/12/27 11:27:07;;;;;;;5.18;1.98;;;;;;;;;;6218934;23;20003;-81
2023/12/27 11:29:53;;;;;;;4.18;1.70;;;;;;;;;;6218738;23;20019;-82
2023/12/27 11:32:42;;;;;;;4.78;2.35;;;;;;;;;;6218855;23;20325;-81
2023/12/27 11:35:27;;;;;;;3.78;2.00;;;;;;;;;;6240200;23;20030;-81
2023/12/27 11:38:20;;;;;;;5.60;2.42;;;;;;;;;;6240221;23;20294;-81
2023/12/27 11:41:10;;;;;;;3.60;1.80;;;;;;;;;;6199017;23;20050;-81
2023/12/27 11:44:03;;;;;;;7.80;2.65;;;;;;;;;;6240019;23;19996;-81
2023/12/27 11:46:48;;;;;;;3.67;1.90;;;;;;;;;;6215124;23;20000;-82
2023/12/27 11:49:33;;;;;;;3.83;1.50;;;;;;;;;;6218587;23;20001;-80
2023/12/27 11:52:19;;;;;;;4.03;1.90;;;;;;;;;;6219066;23;20457;-79
2023/12/27 11:55:18;;;;;;;3.22;1.83;;;;;;;;;;6227370;23;20043;-79
2023/12/27 11:58:03;;;;;;;8.32;2.40;;;;;;;;;;6225048;23;20000;-80
2023/12/27 12:00:49;;;;;;;4.03;1.90;;;;;;;;;;6229253;23;20142;-80
2023/12/27 12:03:46;;;;;;;5.75;1.63;;;;;;;;;;6240077;23;20000;-79
2023/12/27 12:06:50;;;;;;;7.93;2.20;;;;;;;;;;6268901;23;20079;-78
2023/12/27 12:09:44;;;;;;;4.45;1.88;;;;;;;;;;6227693;22;20420;-80
2023/12/27 12:12:30;;;;;;;4.88;2.67;;;;;;;;;;6220280;23;20007;-82
2023/12/27 12:15:15;;;;;;;3.85;2.00;;;;;;;;;;6219106;23;20142;-82
2023/12/27 12:18:01;;;;;;;5.15;2.20;;;;;;;;;;6198155;23;20000;-83
2023/12/27 12:20:47;;;;;;;7.35;2.83;;;;;;;;;;6219643;23;20412;-84
2023/12/27 12:23:33;;;;;;;5.22;2.60;;;;;;;;;;6240169;23;20048;-83
2023/12/27 12:26:18;;;;;;;2.33;1.75;;;;;;;;;;6218666;23;20350;-81
2023/12/27 12:29:07;;;;;;;4.07;1.80;;;;;;;;;;6217951;23;20244;-83
2023/12/27 12:31:55;;;;;;;6.50;1.98;;;;;;;;;;6217935;23;20037;-83
2023/12/27 12:34:41;;;;;;;3.95;2.13;;;;;;;;;;6218179;23;20003;-82
2023/12/27 12:37:27;;;;;;;3.58;2.08;;;;;;;;;;6218338;23;20011;-82
2023/12/27 12:40:14;;;;;;;3.33;1.65;;;;;;;;;;6218380;23;20012;-82
2023/12/27 12:42:59;;;;;;;5.55;1.67;;;;;;;;;;6217817;23;20008;-82
2023/12/27 12:45:45;;;;;;;5.38;2.25;;;;;;;;;;6217934;23;20340;-81
2023/12/27 12:48:31;;;;;;;4.45;1.90;;;;;;;;;;6218722;23;20004;-81
2023/12/27 12:51:16;;;;;;;5.68;2.30;;;;;;;;;;6217913;23;20004;-81
2023/12/27 12:54:02;;;;;;;5.22;1.73;;;;;;;;;;6218271;23;20004;-81
2023/12/27 12:56:48;;;;;;;5.18;1.60;;;;;;;;;;6217956;23;20432;-80
2023/12/27 12:59:33;;;;;;;4.78;2.05;;;;;;;;;;6217706;23;19992;-80
2023/12/27 13:02:19;;;;;;;4.10;1.77;;;;;;;;;;6217593;23;19999;-81
2023/12/27 13:05:04;;;;;;;5.15;1.83;;;;;;;;;;6218376;23;19992;-80
2023/12/27 13:07:50;;;;;;;5.07;1.83;;;;;;;;;;6217735;23;20014;-81
2023/12/27 13:10:36;;;;;;;2.60;1.75;;;;;;;;;;6218318;23;19996;-80
2023/12/27 13:13:21;;;;;;;3.88;1.70;;;;;;;;;;6218024;23;19996;-81
2023/12/27 13:16:06;;;;;;;3.53;1.85;;;;;;;;;;6218333;23;20012;-81
2023/12/27 13:18:52;;;;;;;6.05;2.08;;;;;;;;;;6218172;23;20000;-80
2023/12/27 13:21:38;;;;;;;5.35;2.08;;;;;;;;;;6218094;23;20398;-81
2023/12/27 13:24:23;;;;;;;4.65;2.10;;;;;;;;;;6218356;23;20086;-81
2023/12/27 13:27:08;;;;;;;4.30;1.60;;;;;;;;;;6217999;23;20011;-81
2023/12/27 13:29:54;;;;;;;5.60;1.88;;;;;;;;;;6218148;23;20066;-82
2023/12/27 13:32:40;;;;;;;8.00;2.22;;;;;;;;;;6238526;23;20055;-80
2023/12/27 13:35:27;;;;;;;5.78;2.03;;;;;;;;;;6217935;23;19996;-82
2023/12/27 13:38:13;;;;;;;5.10;2.03;;;;;;;;;;6216776;23;20004;-80
2023/12/27 13:40:58;;;;;;;4.13;2.17;;;;;;;;;;6217544;23;20000;-81
2023/12/27 13:43:43;;;;;;;3.47;2.03;;;;;;;;;;6216706;23;20028;-82
2023/12/27 13:46:29;;;;;;;6.13;2.53;;;;;;;;;;6217702;23;20027;-81
2023/12/27 13:49:14;;;;;;;9.57;3.45;;;;;;;;;;6218079;23;19992;-81
2023/12/27 13:51:59;;;;;;;4.65;2.55;;;;;;;;;;6217711;23;20001;-81
2023/12/27 13:54:44;;;;;;;4.68;2.55;;;;;;;;;;6218621;23;20362;-82
2023/12/27 13:57:30;;;;;;;4.15;2.45;;;;;;;;;;6240152;23;20004;-81
2023/12/27 14:00:16;;;;;;;6.03;2.38;;;;;;;;;;6242791;23;20000;-81
2023/12/27 14:03:02;;;;;;;3.55;2.22;;;;;;;;;;6219854;23;20000;-81
2023/12/27 14:05:47;;;;;;;5.13;2.78;;;;;;;;;;6240902;23;20315;-80
2023/12/27 14:08:32;;;;;;;7.22;2.40;;;;;;;;;;6219773;23;20035;-81
2023/12/27 14:11:22;;;;;;;5.85;2.05;;;;;;;;;;6219598;23;19996;-80
2023/12/27 14:14:08;;;;;;;5.30;2.10;;;;;;;;;;6219383;23;20004;-82
2023/12/27 14:16:54;;;;;;;4.68;2.05;;;;;;;;;;6198696;23;20072;-80
2023/12/27 14:19:40;;;;;;;4.38;2.00;;;;;;;;;;6219580;23;20034;-80
2023/12/27 14:22:25;;;;;;;8.60;2.72;;;;;;;;;;6219401;23;20046;-79
2023/12/27 14:25:11;;;;;;;10.98;2.63;;;;;;;;;;6219968;23;20004;-80
2023/12/27 14:27:57;;;;;;;4.65;2.15;;;;;;;;;;6198327;23;20075;-80
2023/12/27 14:30:42;;;;;;;8.27;3.20;;;;;;;;;;6219664;23;19992;-80
2023/12/27 14:33:30;;;;;;;7.85;3.33;;;;;;;;;;6219887;23;19996;-80
2023/12/27 14:36:18;;;;;;;8.38;3.25;;;;;;;;;;6219243;23;20075;-80
2023/12/27 14:39:05;;;;;;;7.95;4.00;;;;;;;;;;6219592;23;20004;-80
2023/12/27 14:41:51;;;;;;;12.20;4.40;;;;;;;;;;6219266;23;20002;-82
2023/12/27 14:44:37;;;;;;;7.55;2.75;;;;;;;;;;6218865;23;19996;-83
2023/12/27 14:47:23;;;;;;;5.25;2.58;;;;;;;;;;6219313;23;20000;-83
2023/12/27 14:50:08;;;;;;;8.18;3.25;;;;;;;;;;6219363;23;20059;-81
2023/12/27 14:52:54;;;;;;;9.68;3.63;;;;;;;;;;6219420;23;20003;-82
2023/12/27 14:55:39;;;;;;;11.13;3.50;;;;;;;;;;6219726;23;20106;-83
2023/12/27 14:58:24;;;;;;;7.63;3.22;;;;;;;;;;6219589;23;20055;-82
2023/12/27 15:01:10;;;;;;;6.05;2.80;;;;;;;;;;6219206;23;20007;-82
2023/12/27 15:03:56;;;;;;;4.20;2.40;;;;;;;;;;6218620;23;20003;-82
2023/12/27 15:06:43;;;;;;;8.52;2.88;;;;;;;;;;6218763;23;19996;-82
2023/12/27 15:09:29;;;;;;;9.45;2.72;;;;;;;;;;6219334;23;20019;-82
2023/12/27 15:12:14;;;;;;;5.18;2.58;;;;;;;;;;6218375;23;20000;-81
2023/12/27 15:14:59;;;;;;;4.45;2.42;;;;;;;;;;6219010;23;20016;-81
2023/12/27 15:17:45;;;;;;;6.53;2.83;;;;;;;;;;6240670;23;20000;-80
2023/12/27 15:20:30;;;;;;;8.05;3.20;;;;;;;;;;6219457;23;20034;-80
2023/12/27 15:23:15;;;;;;;9.85;3.30;;;;;;;;;;6240054;23;20087;-81
2023/12/27 15:26:01;;;;;;;7.68;3.00;;;;;;;;;;6222487;23;20000;-80
2023/12/27 15:28:47;;;;;;;9.23;3.00;;;;;;;;;;6223091;23;20008;-80
2023/12/27 15:31:32;;;;;;;8.32;3.42;;;;;;;;;;6214382;23;20004;-79
2023/12/27 15:34:17;;;;;;;6.95;3.17;;;;;;;;;;6218427;23;20000;-81
2023/12/27 15:37:05;;;;;;;7.97;3.13;;;;;;;;;;6218849;23;19996;-80
2023/12/27 15:39:51;;;;;;;7.07;2.78;;;;;;;;;;6218983;23;20031;-80
2023/12/27 15:42:36;;;;;;;7.75;3.15;;;;;;;;;;6239750;23;20556;-80
2023/12/27 15:45:21;;;;;;;10.13;3.95;;;;;;;;;;6198250;23;20075;-80
2023/12/27 15:48:07;;;;;;;10.75;4.50;;;;;;;;;;6219055;23;20062;-79
2023/12/27 15:50:52;;;;;;;8.52;4.00;;;;;;;;;;6218944;23;19996;-80
2023/12/27 15:53:37;;;;;;;8.35;3.90;;;;;;;;;;6218256;23;19996;-81
2023/12/27 15:56:28;;;;;;;8.27;4.53;;;;;;;;;;6198082;23;20023;-79
2023/12/27 15:59:14;;;;;;;17.40;6.85;;;;;;;;;;6218237;23;20026;-80
2023/12/27 16:01:59;;;;;;;11.57;5.85;;;;;;;;;;6218254;23;20004;-82
2023/12/27 16:04:45;;;;;;;11.68;6.47;;;;;;;;;;6218379;23;20000;-78
2023/12/27 16:07:30;;;;;;;12.43;6.43;;;;;;;;;;6218667;23;20004;-83
2023/12/27 16:10:15;;;;;;;9.48;4.32;;;;;;;;;;6217886;23;20000;-80
2023/12/27 16:13:00;;;;;;;8.77;3.83;;;;;;;;;;6218314;23;19996;-82
2023/12/27 16:15:46;;;;;;;9.75;3.65;;;;;;;;;;6217972;23;20082;-82
2023/12/27 16:18:32;;;;;;;10.00;3.53;;;;;;;;;;6239030;23;20000;-81
2023/12/27 16:21:18;;;;;;;10.82;4.13;;;;;;;;;;6220855;23;20003;-82
2023/12/27 16:24:04;;;;;;;7.53;3.60;;;;;;;;;;6223207;23;20000;-83
2023/12/27 16:26:49;;;;;;;9.63;3.38;;;;;;;;;;6218239;23;20400;-81
2023/12/27 16:29:34;;;;;;;9.88;3.53;;;;;;;;;;6217952;23;20007;-80
2023/12/27 16:32:21;;;;;;;6.75;3.35;;;;;;;;;;6218708;23;20004;-81
2023/12/27 16:35:06;;;;;;;10.10;4.05;;;;;;;;;;6219169;23;19996;-79